Time;durP1;ratioP1;P1;durP2;ratioP2;P2;SDS_P1;SDS_P2;PMS_P1;PMS_P2;Temp;Humidity;BMP_temperature;BMP_pressure;BME280_temperature;BME280_humidity;BME280_pressure;Samples;Min_cycle;Max_cycle;Signal;HPM_P1;HPM_P2
2022/05/09 00:01:26;;;;;;;6.55;3.80;;;;;;;6.35;71.73;93948.53;5093756;28;20032;-46
2022/05/09 00:03:51;;;;;;;5.30;3.83;;;;;;;6.36;72.42;93932.84;5092869;28;20413;-47
2022/05/09 00:06:17;;;;;;;4.50;3.67;;;;;;;6.46;71.11;93942.97;5093650;28;20027;-47
2022/05/09 00:08:42;;;;;;;5.65;3.63;;;;;;;6.19;70.84;93935.72;5093713;28;20038;-46
2022/05/09 00:11:12;;;;;;;12.63;4.50;;;;;;;6.37;70.78;93942.53;5093245;28;20479;-46
2022/05/09 00:13:38;;;;;;;9.43;4.70;;;;;;;6.42;71.12;93939.03;5093493;28;20431;-47
2022/05/09 00:16:04;;;;;;;6.57;3.78;;;;;;;6.39;72.01;93943.53;5093380;28;20103;-46
2022/05/09 00:18:29;;;;;;;4.55;3.78;;;;;;;6.22;72.14;93939.41;5093048;28;20546;-46
2022/05/09 00:20:55;;;;;;;5.55;4.13;;;;;;;6.10;72.13;93936.00;5092980;28;20040;-47
2022/05/09 00:23:20;;;;;;;5.43;3.55;;;;;;;5.89;70.97;93935.63;5093016;28;20031;-46
2022/05/09 00:25:46;;;;;;;8.07;3.92;;;;;;;5.81;70.82;93942.09;5093246;28;20081;-46
2022/05/09 00:28:11;;;;;;;5.53;3.72;;;;;;;5.99;71.23;93934.09;5093190;28;20515;-46
2022/05/09 00:30:37;;;;;;;4.40;3.15;;;;;;;6.10;70.42;93936.75;5092843;28;20428;-48
2022/05/09 00:33:03;;;;;;;5.90;3.72;;;;;;;5.92;70.25;93937.34;5092767;28;20031;-46
2022/05/09 00:35:28;;;;;;;5.18;3.00;;;;;;;6.00;70.19;93932.81;5092698;28;20043;-47
2022/05/09 00:37:54;;;;;;;5.30;3.65;;;;;;;5.93;70.51;93930.59;5092811;28;20020;-47
2022/05/09 00:40:19;;;;;;;4.90;3.30;;;;;;;5.70;70.80;93918.25;5092694;28;20028;-47
2022/05/09 00:42:48;;;;;;;5.75;3.67;;;;;;;5.92;70.67;93937.34;5092946;28;20027;-47
2022/05/09 00:45:13;;;;;;;6.65;3.40;;;;;;;5.93;70.60;93936.09;5092616;28;20020;-47
2022/05/09 00:47:39;;;;;;;4.60;3.53;;;;;;;6.08;70.40;93936.53;5092467;28;20032;-47
2022/05/09 00:50:06;;;;;;;5.35;3.78;;;;;;;5.60;70.50;93941.72;5092788;28;20083;-46
2022/05/09 00:52:36;;;;;;;6.68;3.92;;;;;;;5.51;71.98;93936.53;5092778;28;20024;-47
2022/05/09 00:55:05;;;;;;;7.25;3.95;;;;;;;5.72;72.03;93937.66;5092621;28;20032;-47
2022/05/09 00:57:57;;;;;;;4.75;4.03;;;;;;;5.70;71.51;93931.94;5092354;28;20020;-46
2022/05/09 01:00:24;;;;;;;7.38;3.97;;;;;;;5.47;72.00;93932.56;5078594;28;20532;-45
2022/05/09 01:02:55;;;;;;;7.70;4.35;;;;;;;5.49;72.47;93932.78;5092126;28;20028;-47
2022/05/09 01:05:20;;;;;;;4.53;3.30;;;;;;;5.47;72.25;93933.31;5092099;28;20044;-46
2022/05/09 01:07:45;;;;;;;4.13;2.97;;;;;;;5.37;72.48;93930.09;5092441;28;20390;-47
2022/05/09 01:10:12;;;;;;;6.88;2.90;;;;;;;5.25;71.54;93930.63;5092401;28;20047;-46
2022/05/09 01:12:39;;;;;;;6.32;3.15;;;;;;;5.12;71.50;93927.69;5092318;28;20463;-47
2022/05/09 01:15:12;;;;;;;4.97;3.33;;;;;;;5.02;72.58;93919.03;5073890;28;20028;-46
2022/05/09 01:17:39;;;;;;;4.45;3.70;;;;;;;5.25;72.29;93919.69;5074480;28;20035;-46
2022/05/09 01:20:08;;;;;;;4.70;3.17;;;;;;;5.01;72.56;93903.09;5092206;28;20032;-50
2022/05/09 01:22:35;;;;;;;3.40;2.90;;;;;;;5.09;73.88;93920.50;5092239;28;20024;-50
2022/05/09 01:25:03;;;;;;;4.55;2.97;;;;;;;5.30;72.67;93918.94;5091722;28;20035;-45
2022/05/09 01:27:34;;;;;;;4.35;2.95;;;;;;;5.24;71.77;93926.44;5091741;28;20111;-46
2022/05/09 01:30:03;;;;;;;4.57;3.28;;;;;;;5.18;72.39;93917.47;5091914;28;20038;-45
2022/05/09 01:32:42;;;;;;;4.68;3.55;;;;;;;5.12;73.04;93919.47;5073542;28;20035;-47
2022/05/09 01:35:21;;;;;;;4.88;3.08;;;;;;;5.18;72.65;93922.94;5073920;28;20416;-46
2022/05/09 01:37:50;;;;;;;3.70;3.00;;;;;;;5.01;72.69;93912.06;5073531;28;20032;-45
2022/05/09 01:40:15;;;;;;;;;;;;;;;5.10;72.43;93920.00;5092111;28;20024;-47
2022/05/09 01:42:42;;;;;;;3.13;2.35;;;;;;;4.91;72.57;93921.03;5091599;28;19915;-46
2022/05/09 01:45:08;;;;;;;5.93;3.70;;;;;;;4.55;72.97;93892.72;5091761;28;20095;-46
2022/05/09 01:50:18;;;;;;;5.05;2.80;;;;;;;5.12;72.08;93919.47;5091711;28;20043;-48
2022/05/09 01:52:44;;;;;;;5.22;2.97;;;;;;;5.11;71.93;93918.72;5091663;28;20024;-47
2022/05/09 01:55:10;;;;;;;3.38;2.97;;;;;;;4.82;71.41;93915.81;5091232;28;20500;-46
2022/05/09 01:57:36;;;;;;;5.18;2.92;;;;;;;4.63;71.27;93921.06;5091516;28;20027;-46
2022/05/09 02:00:05;;;;;;;4.40;3.20;;;;;;;4.57;72.42;93921.06;5090703;28;20027;-47
2022/05/09 02:02:31;;;;;;;4.05;2.70;;;;;;;4.83;71.47;93920.78;5091027;28;20043;-46
2022/05/09 02:04:56;;;;;;;5.15;2.95;;;;;;;4.89;71.85;93921.53;5090953;28;20072;-46
2022/05/09 02:07:23;;;;;;;4.25;3.05;;;;;;;4.87;71.55;93920.53;5091292;28;20024;-47
2022/05/09 02:09:49;;;;;;;4.97;3.40;;;;;;;4.70;72.92;93931.50;5091266;28;20040;-47
2022/05/09 02:12:16;;;;;;;8.07;4.03;;;;;;;4.63;73.46;93901.94;5091266;28;20055;-46
2022/05/09 02:14:43;;;;;;;5.18;4.43;;;;;;;4.79;73.00;93925.75;5090961;28;20028;-47
2022/05/09 02:17:09;;;;;;;5.95;3.95;;;;;;;4.80;73.52;93921.03;5089953;28;20044;-46
2022/05/09 02:19:35;;;;;;;5.13;3.88;;;;;;;4.82;73.75;93927.50;5091164;28;20081;-46
2022/05/09 02:22:01;;;;;;;5.60;3.67;;;;;;;4.82;73.50;93932.97;5091031;28;20120;-49
2022/05/09 02:24:28;;;;;;;6.18;3.20;;;;;;;4.45;73.82;93913.38;5090826;28;20085;-46
2022/05/09 02:26:54;;;;;;;9.15;3.78;;;;;;;4.64;72.45;93930.75;5090963;28;20106;-47
2022/05/09 02:29:20;;;;;;;4.22;3.38;;;;;;;4.63;72.47;93932.75;5090655;28;20028;-47
2022/05/09 02:31:45;;;;;;;5.90;3.40;;;;;;;4.60;72.51;93930.25;5090637;28;20034;-45
2022/05/09 02:34:11;;;;;;;4.95;3.35;;;;;;;4.59;72.18;93929.50;5090796;28;20093;-46
2022/05/09 02:36:37;;;;;;;4.38;3.20;;;;;;;4.65;72.06;93926.03;5090834;28;20024;-46
2022/05/09 02:39:03;;;;;;;4.63;3.38;;;;;;;4.37;72.19;93926.81;5090754;28;20221;-45
2022/05/09 02:41:30;;;;;;;5.00;3.42;;;;;;;4.36;72.42;93933.50;5090807;28;20024;-49
2022/05/09 02:43:55;;;;;;;4.68;3.88;;;;;;;4.22;73.62;93934.47;5090697;28;20028;-46
2022/05/09 02:46:20;;;;;;;5.97;3.17;;;;;;;4.36;72.57;93925.31;5090692;28;20412;-46
2022/05/09 02:48:46;;;;;;;10.07;3.13;;;;;;;4.36;72.62;93930.78;5090401;28;20039;-45
2022/05/09 02:51:13;;;;;;;5.47;3.42;;;;;;;4.42;72.31;93928.03;5090459;28;20024;-46
2022/05/09 02:53:39;;;;;;;3.95;3.10;;;;;;;4.10;73.03;93913.09;5090608;28;20028;-46
2022/05/09 02:56:05;;;;;;;3.95;3.13;;;;;;;4.18;72.77;93928.50;5090235;28;20131;-47
2022/05/09 02:58:31;;;;;;;5.53;3.33;;;;;;;4.39;72.38;93929.78;5090546;28;20020;-47
2022/05/09 03:00:56;;;;;;;4.43;3.15;;;;;;;4.47;72.11;93930.78;5090211;28;20393;-46
2022/05/09 03:06:06;;;;;;;6.40;3.60;;;;;;;4.10;72.99;93935.72;5090226;28;20244;-46
2022/05/09 03:08:32;;;;;;;5.20;3.63;;;;;;;3.95;73.85;93918.81;5090139;28;20028;-46
2022/05/09 03:10:57;;;;;;;5.20;3.33;;;;;;;3.83;74.93;93925.50;5092168;28;20031;-48
2022/05/09 03:13:23;;;;;;;4.00;2.97;;;;;;;3.97;72.51;93930.00;5094685;28;20019;-47
2022/05/09 03:15:49;;;;;;;3.75;2.88;;;;;;;4.08;72.52;93932.75;5094200;28;20028;-47
2022/05/09 03:18:17;;;;;;;4.97;3.80;;;;;;;3.64;73.46;93927.91;5094310;28;20071;-47
2022/05/09 03:20:43;;;;;;;5.78;3.58;;;;;;;3.84;74.27;93932.44;5094507;28;20085;-47
2022/05/09 03:23:09;;;;;;;5.90;3.95;;;;;;;3.82;75.23;93943.13;5094154;28;20028;-46
2022/05/09 03:25:36;;;;;;;7.53;3.95;;;;;;;3.93;74.55;93924.03;5094129;28;20187;-47
2022/05/09 03:28:03;;;;;;;5.05;3.17;;;;;;;3.83;73.98;93936.44;5094076;28;20020;-47
2022/05/09 03:30:29;;;;;;;5.45;2.95;;;;;;;3.68;74.09;93912.03;5094080;28;20142;-47
2022/05/09 03:32:55;;;;;;;8.93;4.10;;;;;;;3.73;74.25;93944.09;5094329;28;20421;-47
2022/05/09 03:35:20;;;;;;;10.45;5.68;;;;;;;3.95;74.14;93945.38;5094200;28;20031;-47
2022/05/09 03:37:46;;;;;;;12.02;7.35;;;;;;;4.05;73.90;93944.66;5094014;28;20020;-48
2022/05/09 03:40:12;;;;;;;6.68;5.82;;;;;;;4.00;73.92;93944.66;5093846;28;20020;-48
2022/05/09 03:42:39;;;;;;;7.53;4.90;;;;;;;3.95;73.73;93956.31;5093880;28;20104;-46
2022/05/09 03:45:05;;;;;;;6.43;4.55;;;;;;;4.06;73.28;93951.63;5093757;28;20023;-47
2022/05/09 03:47:31;;;;;;;6.47;5.03;;;;;;;4.11;73.04;93950.88;5093742;28;20024;-48
2022/05/09 03:49:57;;;;;;;8.82;4.65;;;;;;;3.98;73.18;93955.31;5093616;28;20039;-47
2022/05/09 03:52:23;;;;;;;8.40;5.15;;;;;;;4.00;73.42;93958.31;5093948;28;20027;-45
2022/05/09 03:54:48;;;;;;;5.40;4.57;;;;;;;3.98;73.25;93956.06;5093440;28;20481;-47
2022/05/09 03:57:14;;;;;;;5.18;3.50;;;;;;;3.90;72.91;93952.31;5093494;28;20035;-46
2022/05/09 03:59:40;;;;;;;18.00;6.88;;;;;;;4.22;73.20;93963.81;5093804;28;20027;-47
2022/05/09 04:02:05;;;;;;;7.00;4.72;;;;;;;4.31;72.92;93964.31;5093374;28;20550;-46
2022/05/09 04:04:30;;;;;;;7.15;4.20;;;;;;;4.47;71.90;93951.91;5093330;28;20032;-48
2022/05/09 04:06:56;;;;;;;5.10;3.92;;;;;;;4.42;72.11;93964.31;5093335;28;20052;-46
2022/05/09 04:09:21;;;;;;;5.05;4.43;;;;;;;4.64;72.34;93969.03;5093558;28;20032;-46
2022/05/09 04:11:48;;;;;;;12.05;4.80;;;;;;;4.71;71.21;93965.81;5093282;28;20466;-47
2022/05/09 04:16:49;;;;;;;8.82;6.00;;;;;;;4.70;71.93;93964.31;5093150;28;20056;-49
2022/05/09 04:17:03;;;;;;;19.67;12.77;;;;;;;4.87;71.91;93972.53;5093169;28;20064;-47
2022/05/09 04:19:29;;;;;;;8.32;5.93;;;;;;;5.11;71.25;93967.28;5093128;28;20509;-47
2022/05/09 04:21:54;;;;;;;8.65;6.03;;;;;;;5.53;70.41;93977.09;5092708;28;20040;-46
2022/05/09 04:24:20;;;;;;;12.45;5.88;;;;;;;6.04;69.21;93976.41;5093154;28;20447;-48
2022/05/09 04:26:45;;;;;;;9.60;5.18;;;;;;;6.26;68.08;93979.00;5092983;28;20024;-47
2022/05/09 04:29:11;;;;;;;15.15;7.22;;;;;;;6.67;68.02;93973.53;5092919;28;20032;-46
2022/05/09 04:31:36;;;;;;;15.52;9.27;;;;;;;7.32;66.04;93973.44;5093269;28;20168;-46
2022/05/09 04:34:01;;;;;;;14.23;7.10;;;;;;;7.84;64.19;93973.81;5093030;28;20020;-46
2022/05/09 04:36:28;;;;;;;9.52;6.03;;;;;;;7.87;63.01;93947.31;5093100;28;20027;-48
2022/05/09 04:38:53;;;;;;;14.85;6.45;;;;;;;8.22;63.49;93969.09;5092708;28;20035;-47
2022/05/09 04:41:20;;;;;;;16.00;9.52;;;;;;;8.41;62.77;93978.13;5092631;28;20028;-47
2022/05/09 04:43:46;;;;;;;15.77;9.77;;;;;;;8.40;62.04;93969.13;5092823;28;20028;-47
2022/05/09 04:46:12;;;;;;;24.02;11.75;;;;;;;9.18;61.96;93969.91;5092802;28;20066;-47
2022/05/09 04:48:40;;;;;;;19.27;12.98;;;;;;;9.74;60.04;93967.63;5092857;28;20479;-49
2022/05/09 04:51:06;;;;;;;18.50;12.05;;;;;;;9.60;58.12;93960.63;5092841;28;20028;-47
2022/05/09 04:53:31;;;;;;;21.42;12.63;;;;;;;9.42;58.95;93970.47;5092725;28;20446;-48
2022/05/09 04:55:57;;;;;;;24.63;12.63;;;;;;;9.57;59.55;93964.44;5092361;28;20020;-47
2022/05/09 04:58:23;;;;;;;17.08;10.65;;;;;;;10.21;58.55;93965.69;5074670;28;20028;-47
2022/05/09 05:00:49;;;;;;;19.40;9.80;;;;;;;10.45;57.84;93962.66;5092581;28;20489;-48
2022/05/09 05:03:14;;;;;;;17.52;14.15;;;;;;;10.75;57.67;93961.47;5092187;28;20401;-46
2022/05/09 05:05:41;;;;;;;14.60;12.23;;;;;;;11.13;56.80;93968.13;5091984;28;20055;-47
2022/05/09 05:08:06;;;;;;;13.65;8.95;;;;;;;11.66;56.59;93969.25;5092180;28;20032;-47
2022/05/09 05:10:32;;;;;;;13.25;7.82;;;;;;;12.10;54.78;93965.31;5092408;28;20035;-46
2022/05/09 05:12:59;;;;;;;16.30;9.02;;;;;;;12.30;54.37;93957.44;5092098;28;20035;-47
2022/05/09 05:15:28;;;;;;;12.80;6.35;;;;;;;12.30;54.44;93965.75;5092338;28;20095;-47
2022/05/09 05:17:54;;;;;;;37.85;11.07;;;;;;;12.14;55.46;93962.91;5092324;28;20028;-46
2022/05/09 05:20:20;;;;;;;6.43;5.32;;;;;;;12.43;55.91;93952.50;5092195;28;20154;-47
2022/05/09 05:22:47;;;;;;;7.90;5.05;;;;;;;12.72;55.09;93958.69;5092001;28;20485;-47
2022/05/09 05:25:14;;;;;;;6.63;4.22;;;;;;;13.53;53.93;93955.84;5092213;28;20162;-47
2022/05/09 05:27:40;;;;;;;6.63;3.97;;;;;;;14.20;51.62;93957.00;5092095;28;20546;-47
2022/05/09 05:30:06;;;;;;;5.38;4.53;;;;;;;15.16;49.78;93954.31;5092094;28;20062;-51
2022/05/09 05:32:35;;;;;;;7.03;5.22;;;;;;;16.33;47.13;93944.53;5091944;28;20051;-46
2022/05/09 05:35:01;;;;;;;10.82;5.32;;;;;;;16.94;45.36;93944.53;5090852;28;20027;-46
2022/05/09 05:37:26;;;;;;;7.40;5.60;;;;;;;17.60;45.02;93948.25;5091620;28;20035;-47
2022/05/09 05:39:52;;;;;;;6.63;4.95;;;;;;;17.88;44.02;93948.31;5091660;28;20032;-48
2022/05/09 05:42:18;;;;;;;8.48;5.40;;;;;;;18.04;43.60;93946.72;5091545;28;20035;-47
2022/05/09 05:44:45;;;;;;;7.32;5.00;;;;;;;18.25;42.69;93948.22;5091411;28;20032;-46
2022/05/09 05:47:13;;;;;;;10.15;4.60;;;;;;;18.40;42.08;93940.28;5090297;28;20056;-46
2022/05/09 05:49:39;;;;;;;32.70;5.95;;;;;;;18.98;41.91;93940.25;5091634;28;20024;-47
2022/05/09 05:52:06;;;;;;;7.55;4.25;;;;;;;19.44;40.65;93941.47;5091574;28;20470;-49
2022/05/09 05:54:34;;;;;;;7.30;4.25;;;;;;;19.47;39.73;93945.13;5091567;28;20563;-47
2022/05/09 05:57:00;;;;;;;20.93;5.90;;;;;;;19.20;41.28;93947.41;5091496;28;20032;-48
2022/05/09 05:59:26;;;;;;;7.00;4.25;;;;;;;18.70;41.68;93944.56;5091214;28;20039;-47
2022/05/09 06:01:52;;;;;;;5.30;4.22;;;;;;;18.35;42.28;93948.97;5091372;28;20031;-46
2022/05/09 06:04:19;;;;;;;14.73;4.90;;;;;;;18.01;43.81;93944.38;5090497;28;20051;-49
2022/05/09 06:06:44;;;;;;;6.25;4.13;;;;;;;17.24;44.42;93924.56;5091386;28;20044;-46
2022/05/09 06:09:11;;;;;;;4.15;3.30;;;;;;;17.05;44.63;93960.00;5091237;28;20032;-47
2022/05/09 06:11:37;;;;;;;4.28;3.30;;;;;;;16.94;44.53;93944.53;5091036;28;20036;-47
2022/05/09 06:14:04;;;;;;;3.80;2.80;;;;;;;17.01;45.71;93946.50;5091171;28;20038;-47
2022/05/09 06:16:30;;;;;;;4.28;3.50;;;;;;;16.80;46.04;93945.50;5091164;28;20116;-48
2022/05/09 06:18:55;;;;;;;6.28;3.58;;;;;;;17.07;46.66;93951.81;5091144;28;20498;-47
2022/05/09 06:21:22;;;;;;;3.85;2.65;;;;;;;16.84;45.83;93957.72;5091067;28;20570;-47
2022/05/09 06:23:49;;;;;;;4.70;2.70;;;;;;;16.63;45.31;93949.06;5091095;28;20416;-48
2022/05/09 06:26:14;;;;;;;6.30;3.75;;;;;;;17.22;46.59;93946.00;5090920;28;20031;-45
2022/05/09 06:28:41;;;;;;;8.32;2.97;;;;;;;17.70;45.67;93946.94;5090688;28;20028;-49
2022/05/09 06:31:06;;;;;;;4.65;2.72;;;;;;;17.95;43.31;93939.06;5090974;28;20112;-50
2022/05/09 06:33:32;;;;;;;7.22;2.78;;;;;;;18.47;43.24;93945.03;5090865;28;20477;-49
2022/05/09 06:35:58;;;;;;;6.80;2.72;;;;;;;18.13;41.65;93928.50;5090781;28;20509;-47
2022/05/09 06:38:27;;;;;;;3.10;2.30;;;;;;;18.16;41.87;93947.63;5090856;28;20028;-47
2022/05/09 06:40:55;;;;;;;3.63;2.37;;;;;;;18.98;44.25;93943.78;5090516;28;20560;-46
2022/05/09 06:43:24;;;;;;;4.75;2.40;;;;;;;19.35;40.57;93938.69;5090488;28;20031;-46
2022/05/09 06:45:50;;;;;;;;;;;;;;;19.83;39.45;93938.47;5090570;28;20398;-47
2022/05/09 06:48:16;;;;;;;7.28;2.78;;;;;;;20.28;39.12;93934.53;5090480;28;19912;-47
2022/05/09 06:50:41;;;;;;;12.70;2.55;;;;;;;20.59;38.31;93937.25;5090629;28;20023;-47
2022/05/09 06:53:08;;;;;;;18.90;6.55;;;;;;;20.99;37.59;93948.25;5090761;28;20032;-49
2022/05/09 06:55:33;;;;;;;4.13;2.75;;;;;;;21.43;37.62;93950.31;5090247;28;20474;-47
2022/05/09 06:57:59;;;;;;;14.25;2.75;;;;;;;22.12;36.00;93941.19;5090240;28;20032;-47
2022/05/09 07:00:26;;;;;;;2.15;1.95;;;;;;;22.63;34.21;93944.91;5090648;28;20024;-48
2022/05/09 07:02:52;;;;;;;5.15;2.00;;;;;;;23.24;33.34;93946.94;5089822;28;20020;-48
2022/05/09 07:05:20;;;;;;;4.65;2.15;;;;;;;23.46;30.78;93948.19;5090005;28;20090;-50
2022/05/09 07:07:48;;;;;;;8.00;4.38;;;;;;;23.83;30.83;93940.31;5090180;28;20052;-47
2022/05/09 07:10:14;;;;;;;3.67;2.88;;;;;;;24.30;31.39;93949.09;5090491;28;20470;-49
2022/05/09 07:12:47;;;;;;;3.92;2.10;;;;;;;24.87;30.20;93937.84;5090179;28;20032;-47
2022/05/09 07:15:15;;;;;;;4.15;1.80;;;;;;;25.55;28.94;93946.81;5090156;28;20020;-51
2022/05/09 07:17:40;;;;;;;2.72;1.70;;;;;;;26.19;27.97;93940.50;5090436;28;20035;-49
2022/05/09 07:20:07;;;;;;;3.13;2.00;;;;;;;26.50;27.37;93945.38;5090133;28;20031;-48
2022/05/09 07:22:33;;;;;;;2.63;1.70;;;;;;;26.64;26.88;93946.72;5090270;28;20050;-46
2022/05/09 07:24:58;;;;;;;14.52;2.17;;;;;;;26.83;27.48;93951.09;5090064;28;20500;-48
2022/05/09 07:27:24;;;;;;;2.70;1.92;;;;;;;26.94;26.40;93945.16;5090037;28;20085;-47
2022/05/09 07:29:49;;;;;;;4.85;2.42;;;;;;;26.99;24.32;93946.06;5090323;28;20369;-47
2022/05/09 07:32:15;;;;;;;3.17;1.92;;;;;;;27.72;25.68;93938.38;5090166;28;20463;-49
2022/05/09 07:34:40;;;;;;;5.20;1.77;;;;;;;27.64;25.58;93938.78;5089966;28;20481;-47
2022/05/09 07:37:05;;;;;;;3.55;2.05;;;;;;;28.07;23.74;93941.09;5089978;28;20082;-49
2022/05/09 07:39:31;;;;;;;5.43;1.90;;;;;;;28.74;23.49;93935.69;5089894;28;20032;-50
2022/05/09 07:41:57;;;;;;;1.85;1.45;;;;;;;29.37;22.45;93938.50;5090190;28;20031;-51
2022/05/09 07:44:22;;;;;;;7.15;1.60;;;;;;;29.01;20.89;93938.06;5090030;28;20024;-46
2022/05/09 07:46:48;;;;;;;16.27;2.45;;;;;;;28.92;21.21;93941.28;5090208;28;20032;-46
2022/05/09 07:49:14;;;;;;;15.38;2.30;;;;;;;29.30;21.19;93934.03;5090147;28;20085;-50
2022/05/09 07:51:39;;;;;;;7.78;1.60;;;;;;;29.84;18.80;93943.56;5090054;28;20031;-47
2022/05/09 07:54:05;;;;;;;6.35;2.80;;;;;;;29.47;20.60;93938.84;5089782;28;20458;-48
2022/05/09 07:56:31;;;;;;;3.92;3.40;;;;;;;29.57;20.10;93944.84;5089724;28;20512;-48
2022/05/09 07:58:56;;;;;;;1.88;1.42;;;;;;;29.85;20.68;93945.00;5093114;28;20059;-47
2022/05/09 08:01:22;;;;;;;6.60;2.53;;;;;;;30.23;18.93;93942.56;5093476;28;20522;-47
2022/05/09 08:03:47;;;;;;;3.38;1.83;;;;;;;29.32;19.59;93939.78;5093270;28;20028;-47
2022/05/09 08:06:13;;;;;;;4.43;2.38;;;;;;;28.88;20.61;93947.56;5093170;28;20048;-50
2022/05/09 08:08:40;;;;;;;19.77;4.03;;;;;;;28.60;21.18;93951.53;5093361;28;20032;-51
2022/05/09 08:11:06;;;;;;;5.78;2.97;;;;;;;28.54;21.29;93949.19;5093678;28;20020;-48
2022/05/09 08:13:34;;;;;;;7.47;3.30;;;;;;;28.61;18.99;93948.03;5093792;28;20027;-48
2022/05/09 08:16:02;;;;;;;3.10;1.70;;;;;;;28.87;18.68;93946.09;5093515;28;20040;-48
2022/05/09 08:18:29;;;;;;;1.67;1.48;;;;;;;29.64;16.76;93949.34;5093528;28;20051;-49
2022/05/09 08:20:57;;;;;;;3.25;1.70;;;;;;;29.75;18.91;93950.41;5093060;28;20081;-49
2022/05/09 08:23:23;;;;;;;2.47;1.80;;;;;;;30.07;18.13;93944.94;5093111;28;20055;-48
2022/05/09 08:25:49;;;;;;;21.80;13.35;;;;;;;30.62;17.01;93953.66;5093270;28;20052;-48
2022/05/09 08:28:16;;;;;;;3.55;2.58;;;;;;;31.36;17.29;93944.19;5074869;28;20030;-48
2022/05/09 08:30:43;;;;;;;2.53;1.13;;;;;;;31.30;18.35;93949.00;5092793;28;20024;-47
2022/05/09 08:33:16;;;;;;;2.60;1.25;;;;;;;31.50;17.74;93948.81;5093197;28;20055;-50
2022/05/09 08:35:43;;;;;;;2.92;1.17;;;;;;;32.33;17.10;93952.13;5093447;28;20032;-48
2022/05/09 08:38:09;;;;;;;2.83;1.67;;;;;;;32.27;17.05;93945.56;5074723;28;20437;-47
2022/05/09 08:40:36;;;;;;;3.10;1.08;;;;;;;32.12;14.64;93939.53;5092715;28;20016;-48
2022/05/09 08:43:29;;;;;;;4.72;1.33;;;;;;;30.88;13.23;93945.09;5092952;28;20024;-50
2022/05/09 08:46:04;;;;;;;0.57;0.57;;;;;;;30.39;10.24;93943.03;5092767;28;20028;-48
2022/05/09 08:49:02;;;;;;;1.58;0.80;;;;;;;29.67;11.09;93939.44;5092974;28;20424;-48
2022/05/09 08:51:34;;;;;;;0.80;0.80;;;;;;;28.85;12.57;93946.03;5083670;28;20040;-47
2022/05/09 08:54:03;;;;;;;1.25;0.90;;;;;;;28.50;14.45;93944.09;5092795;28;20161;-47
2022/05/09 08:56:29;;;;;;;5.57;1.80;;;;;;;28.81;17.01;93937.38;5092429;28;20374;-49
2022/05/09 08:59:01;;;;;;;5.55;1.42;;;;;;;28.90;17.13;93944.06;5092328;28;20057;-47
2022/05/09 09:01:47;;;;;;;2.30;1.25;;;;;;;29.90;16.37;93950.16;5092445;28;20099;-48
2022/05/09 09:04:18;;;;;;;2.88;1.90;;;;;;;30.53;15.68;93947.03;5091940;28;20056;-48
2022/05/09 09:07:14;;;;;;;5.68;2.92;;;;;;;30.55;15.16;93949.19;5092284;28;20059;-47
2022/05/09 09:10:03;;;;;;;10.50;2.42;;;;;;;30.01;15.81;93944.75;5074261;28;20031;-46
2022/05/09 09:12:42;;;;;;;4.45;1.90;;;;;;;29.83;15.36;93944.94;5092165;28;20039;-48
2022/05/09 09:15:17;;;;;;;3.88;2.17;;;;;;;29.21;15.49;93940.84;5074173;28;20028;-50
2022/05/09 09:17:57;;;;;;;5.82;2.55;;;;;;;29.10;16.04;93936.94;5092372;28;20080;-46
2022/05/09 09:21:03;;;;;;;5.88;1.25;;;;;;;29.39;15.18;93932.19;5091997;28;20028;-49
2022/05/09 09:23:56;;;;;;;4.38;1.10;;;;;;;29.64;14.55;93931.53;5037243;28;20623;-47
2022/05/09 09:26:30;;;;;;;1.27;0.88;;;;;;;29.97;14.00;93934.00;5073725;28;20099;-47
2022/05/09 09:28:58;;;;;;;0.90;0.90;;;;;;;30.03;15.29;93931.31;5091708;28;20097;-46
2022/05/09 09:31:30;;;;;;;1.45;1.08;;;;;;;30.68;17.14;93936.72;5092069;28;20097;-46
2022/05/09 09:34:21;;;;;;;1.63;0.75;;;;;;;30.82;14.04;93928.53;5091929;28;20024;-46
2022/05/09 09:36:57;;;;;;;1.13;0.85;;;;;;;31.27;14.63;93931.13;5092061;28;20145;-47
2022/05/09 09:39:26;;;;;;;3.20;1.33;;;;;;;31.36;13.47;93923.50;5073832;28;20028;-47
2022/05/09 09:41:52;;;;;;;3.85;0.93;;;;;;;31.22;16.26;93921.03;5091887;28;20039;-47
2022/05/09 09:44:23;;;;;;;3.63;1.67;;;;;;;31.04;13.84;93922.69;5091064;28;20032;-47
2022/05/09 09:47:06;;;;;;;1.52;1.00;;;;;;;31.20;16.68;93926.69;5091083;28;20041;-47
2022/05/09 09:49:37;;;;;;;1.92;0.82;;;;;;;31.26;14.72;93921.13;5091381;28;20111;-48
2022/05/09 09:52:22;;;;;;;1.17;0.95;;;;;;;31.11;16.46;93922.19;5091240;28;20024;-47
2022/05/09 09:54:55;;;;;;;1.73;1.23;;;;;;;30.77;14.07;93918.44;5073250;28;20020;-46
2022/05/09 09:57:30;;;;;;;2.35;1.10;;;;;;;30.47;15.49;93920.47;5091206;28;20063;-48
2022/05/09 09:59:57;;;;;;;3.00;1.17;;;;;;;30.26;15.15;93916.31;5091209;28;20107;-46
2022/05/09 10:02:29;;;;;;;3.35;1.33;;;;;;;30.62;16.01;93913.75;5091076;28;20101;-47
2022/05/09 10:04:56;;;;;;;1.40;1.20;;;;;;;30.38;16.01;93913.09;5090819;28;20044;-47
2022/05/09 10:07:33;;;;;;;1.33;0.95;;;;;;;30.81;15.45;93914.94;5091087;28;20032;-47
2022/05/09 10:10:23;;;;;;;1.45;1.10;;;;;;;30.24;16.76;93916.25;5091346;28;20035;-47
2022/05/09 10:12:54;;;;;;;2.00;1.30;;;;;;;30.98;16.39;93917.56;5091347;28;20035;-47
2022/05/09 10:15:34;;;;;;;1.73;1.15;;;;;;;31.45;14.79;93904.47;5091277;28;20028;-47
2022/05/09 10:18:16;;;;;;;2.05;1.05;;;;;;;31.42;16.03;93903.69;5090907;28;20493;-46
2022/05/09 10:20:41;;;;;;;0.98;0.80;;;;;;;31.60;15.04;93906.25;5090281;28;20520;-46
2022/05/09 10:26:31;;;;;;;2.25;1.10;;;;;;;31.39;15.08;93905.00;5053280;28;20131;-47
2022/05/09 10:29:00;;;;;;;1.52;0.90;;;;;;;31.43;16.47;93911.56;5072934;28;20070;-46
2022/05/09 10:31:40;;;;;;;1.38;0.98;;;;;;;31.30;15.52;93901.25;5090980;28;20084;-47
2022/05/09 10:34:34;;;;;;;1.35;1.05;;;;;;;31.20;16.24;93891.72;5072818;28;20032;-47
2022/05/09 10:37:04;;;;;;;2.42;1.10;;;;;;;30.97;17.08;93896.13;5072945;28;20561;-48
2022/05/09 10:39:34;;;;;;;1.05;0.93;;;;;;;31.04;16.58;93902.72;5072847;28;20032;-48
2022/05/09 10:42:03;;;;;;;0.98;0.82;;;;;;;31.00;17.05;93894.06;5072912;28;20433;-48
2022/05/09 10:44:39;;;;;;;3.47;1.17;;;;;;;30.40;15.33;93905.34;5090440;28;20043;-47
2022/05/09 10:47:20;;;;;;;1.23;0.90;;;;;;;30.23;15.03;93908.38;5090767;28;20446;-50
2022/05/09 10:49:56;;;;;;;2.25;0.88;;;;;;;30.22;16.46;93904.78;5090374;28;20508;-47
2022/05/09 10:52:27;;;;;;;2.58;1.20;;;;;;;30.05;16.21;93905.75;5090748;28;20039;-47
2022/05/09 10:55:06;;;;;;;2.03;0.90;;;;;;;29.23;15.30;93884.03;5090704;28;20027;-46
2022/05/09 10:57:39;;;;;;;1.00;0.88;;;;;;;28.89;17.16;93905.66;5072489;28;20031;-46
2022/05/09 11:00:19;;;;;;;3.50;1.00;;;;;;;28.83;18.96;93900.47;5072401;28;20067;-47
2022/05/09 11:03:17;;;;;;;3.00;1.35;;;;;;;28.84;19.78;93896.25;5072074;28;20024;-46
2022/05/09 11:06:00;;;;;;;3.15;1.27;;;;;;;28.73;19.36;93897.31;5082914;28;20044;-48
2022/05/09 11:08:31;;;;;;;1.67;1.17;;;;;;;28.36;16.76;93891.75;5072294;28;20064;-47
2022/05/09 11:11:40;;;;;;;4.80;1.10;;;;;;;28.65;17.88;93894.22;5090473;28;20063;-46
2022/05/09 11:14:34;;;;;;;2.10;0.90;;;;;;;27.94;17.63;93893.75;5072445;28;20166;-46
2022/05/09 11:17:57;;;;;;;2.90;1.10;;;;;;;27.62;20.90;93892.56;5090136;28;20034;-46
2022/05/09 11:20:37;;;;;;;6.72;1.80;;;;;;;27.80;21.30;93893.25;4988380;28;20060;-47
2022/05/09 11:23:15;;;;;;;1.52;1.15;;;;;;;27.57;18.42;93890.97;4972161;28;20067;-46
2022/05/09 11:25:44;;;;;;;2.15;1.35;;;;;;;27.11;20.11;93883.47;5040553;28;20040;-47
2022/05/09 11:28:35;;;;;;;1.95;1.30;;;;;;;26.80;20.42;93890.75;5069831;28;20029;-47
2022/05/09 11:31:24;;;;;;;2.22;0.90;;;;;;;26.72;19.55;93893.25;5070237;28;20081;-47
2022/05/09 11:34:15;;;;;;;10.27;1.70;;;;;;;26.27;21.27;93889.91;5074123;28;20397;-47
2022/05/09 11:36:59;;;;;;;1.70;1.13;;;;;;;26.44;23.08;93889.25;5056214;28;20036;-47
2022/05/09 11:39:37;;;;;;;3.78;1.05;;;;;;;26.46;23.17;93885.75;5073693;28;20032;-50
2022/05/09 11:45:39;;;;;;;1.88;1.02;;;;;;;25.97;21.13;93886.47;5072767;28;20086;-46
2022/05/09 11:48:39;;;;;;;2.00;1.30;;;;;;;25.76;22.58;93881.31;5069475;28;20032;-46
2022/05/09 11:51:19;;;;;;;2.47;1.10;;;;;;;25.60;22.46;93886.22;5073462;28;20035;-48
2022/05/09 11:53:49;;;;;;;1.48;1.10;;;;;;;25.37;21.80;93886.56;5073663;28;20423;-47
2022/05/09 11:56:14;;;;;;;1.25;0.90;;;;;;;25.38;22.76;93876.72;5073584;28;20099;-48
2022/05/09 11:58:43;;;;;;;2.38;1.90;;;;;;;25.47;23.45;93867.97;5073311;28;20584;-46
2022/05/09 12:01:09;;;;;;;3.45;1.25;;;;;;;25.44;24.01;93877.75;5072405;28;20103;-46